sensor_id;sensor_type;location;lat;lon;timestamp;P1;durP1;ratioP1;P2;durP2;ratioP2
10144;SDS011;5113;41.822;23.564;2023-05-21T00:02:49;6.67;;;4.10;;
10144;SDS011;5113;41.822;23.564;2023-05-21T00:05:56;5.60;;;3.80;;
10144;SDS011;5113;41.822;23.564;2023-05-21T00:09:05;4.23;;;3.60;;
10144;SDS011;5113;41.822;23.564;2023-05-21T00:12:12;4.43;;;4.03;;
10144;SDS011;5113;41.822;23.564;2023-05-21T00:15:18;4.27;;;3.73;;
10144;SDS011;5113;41.822;23.564;2023-05-21T00:18:26;5.23;;;4.23;;
10144;SDS011;5113;41.822;23.564;2023-05-21T00:21:35;5.03;;;3.90;;
10144;SDS011;5113;41.822;23.564;2023-05-21T00:24:43;4.67;;;3.80;;
10144;SDS011;5113;41.822;23.564;2023-05-21T00:27:49;4.90;;;3.70;;
10144;SDS011;5113;41.822;23.564;2023-05-21T00:30:56;4.73;;;3.87;;
10144;SDS011;5113;41.822;23.564;2023-05-21T00:34:04;5.43;;;3.57;;
10144;SDS011;5113;41.822;23.564;2023-05-21T00:37:10;4.50;;;4.03;;
10144;SDS011;5113;41.822;23.564;2023-05-21T00:40:31;4.47;;;4.07;;
10144;SDS011;5113;41.822;23.564;2023-05-21T00:43:37;5.63;;;4.10;;
10144;SDS011;5113;41.822;23.564;2023-05-21T00:46:44;5.40;;;4.37;;
10144;SDS011;5113;41.822;23.564;2023-05-21T00:49:54;4.70;;;3.97;;
10144;SDS011;5113;41.822;23.564;2023-05-21T00:53:00;5.67;;;4.20;;
10144;SDS011;5113;41.822;23.564;2023-05-21T00:56:06;4.37;;;3.97;;
10144;SDS011;5113;41.822;23.564;2023-05-21T00:59:13;4.57;;;4.17;;
10144;SDS011;5113;41.822;23.564;2023-05-21T01:02:21;3.97;;;3.67;;
10144;SDS011;5113;41.822;23.564;2023-05-21T01:05:31;4.40;;;4.00;;
10144;SDS011;5113;41.822;23.564;2023-05-21T01:08:38;4.60;;;4.20;;
10144;SDS011;5113;41.822;23.564;2023-05-21T01:11:46;6.07;;;4.07;;
10144;SDS011;5113;41.822;23.564;2023-05-21T01:14:54;4.10;;;3.77;;
10144;SDS011;5113;41.822;23.564;2023-05-21T01:18:02;4.87;;;4.13;;
10144;SDS011;5113;41.822;23.564;2023-05-21T01:21:11;4.97;;;4.47;;
10144;SDS011;5113;41.822;23.564;2023-05-21T01:24:22;5.50;;;4.17;;
10144;SDS011;5113;41.822;23.564;2023-05-21T01:27:28;4.80;;;4.30;;
10144;SDS011;5113;41.822;23.564;2023-05-21T01:30:35;3.90;;;3.50;;
10144;SDS011;5113;41.822;23.564;2023-05-21T01:33:46;5.53;;;4.77;;
10144;SDS011;5113;41.822;23.564;2023-05-21T01:36:56;4.23;;;3.83;;
10144;SDS011;5113;41.822;23.564;2023-05-21T01:40:11;4.40;;;4.00;;
10144;SDS011;5113;41.822;23.564;2023-05-21T01:43:25;7.00;;;3.37;;
10144;SDS011;5113;41.822;23.564;2023-05-21T01:46:34;4.20;;;3.80;;
10144;SDS011;5113;41.822;23.564;2023-05-21T01:49:42;4.47;;;4.07;;
10144;SDS011;5113;41.822;23.564;2023-05-21T01:52:49;3.60;;;3.30;;
10144;SDS011;5113;41.822;23.564;2023-05-21T01:55:57;4.93;;;3.97;;
10144;SDS011;5113;41.822;23.564;2023-05-21T01:59:04;5.00;;;4.50;;
10144;SDS011;5113;41.822;23.564;2023-05-21T02:02:10;3.83;;;3.37;;
10144;SDS011;5113;41.822;23.564;2023-05-21T02:05:16;4.57;;;3.50;;
10144;SDS011;5113;41.822;23.564;2023-05-21T02:08:23;4.23;;;3.83;;
10144;SDS011;5113;41.822;23.564;2023-05-21T02:11:32;3.47;;;3.17;;
10144;SDS011;5113;41.822;23.564;2023-05-21T02:14:39;4.90;;;4.33;;
10144;SDS011;5113;41.822;23.564;2023-05-21T02:17:45;4.20;;;3.80;;
10144;SDS011;5113;41.822;23.564;2023-05-21T02:20:54;4.77;;;4.27;;
10144;SDS011;5113;41.822;23.564;2023-05-21T02:24:01;3.50;;;3.20;;
10144;SDS011;5113;41.822;23.564;2023-05-21T02:27:08;3.70;;;3.30;;
10144;SDS011;5113;41.822;23.564;2023-05-21T02:30:17;4.03;;;3.63;;
10144;SDS011;5113;41.822;23.564;2023-05-21T02:33:23;4.83;;;4.27;;
10144;SDS011;5113;41.822;23.564;2023-05-21T02:36:29;7.40;;;4.93;;
10144;SDS011;5113;41.822;23.564;2023-05-21T02:39:36;4.00;;;3.60;;
10144;SDS011;5113;41.822;23.564;2023-05-21T02:42:44;4.07;;;3.73;;
10144;SDS011;5113;41.822;23.564;2023-05-21T02:45:50;5.43;;;3.97;;
10144;SDS011;5113;41.822;23.564;2023-05-21T02:48:56;4.60;;;4.00;;
10144;SDS011;5113;41.822;23.564;2023-05-21T02:52:03;4.77;;;4.10;;
10144;SDS011;5113;41.822;23.564;2023-05-21T02:55:10;5.03;;;4.03;;
10144;SDS011;5113;41.822;23.564;2023-05-21T02:58:17;3.93;;;3.57;;
10144;SDS011;5113;41.822;23.564;2023-05-21T03:01:26;4.27;;;3.87;;
10144;SDS011;5113;41.822;23.564;2023-05-21T03:04:33;5.50;;;4.43;;
10144;SDS011;5113;41.822;23.564;2023-05-21T03:07:42;4.73;;;3.87;;
10144;SDS011;5113;41.822;23.564;2023-05-21T03:10:48;5.73;;;4.60;;
10144;SDS011;5113;41.822;23.564;2023-05-21T03:13:56;7.70;;;5.33;;
10144;SDS011;5113;41.822;23.564;2023-05-21T03:17:03;7.10;;;4.53;;
10144;SDS011;5113;41.822;23.564;2023-05-21T03:20:10;4.47;;;4.00;;
10144;SDS011;5113;41.822;23.564;2023-05-21T03:23:20;5.13;;;4.63;;
10144;SDS011;5113;41.822;23.564;2023-05-21T03:26:27;7.07;;;4.93;;
10144;SDS011;5113;41.822;23.564;2023-05-21T03:29:35;4.97;;;4.57;;
10144;SDS011;5113;41.822;23.564;2023-05-21T03:32:43;4.70;;;4.30;;
10144;SDS011;5113;41.822;23.564;2023-05-21T03:35:49;8.50;;;4.97;;
10144;SDS011;5113;41.822;23.564;2023-05-21T03:38:56;4.87;;;4.47;;
10144;SDS011;5113;41.822;23.564;2023-05-21T03:42:02;5.63;;;4.57;;
10144;SDS011;5113;41.822;23.564;2023-05-21T03:45:10;4.70;;;4.30;;
10144;SDS011;5113;41.822;23.564;2023-05-21T03:48:17;4.90;;;4.40;;
10144;SDS011;5113;41.822;23.564;2023-05-21T03:51:23;7.23;;;5.97;;
10144;SDS011;5113;41.822;23.564;2023-05-21T03:54:31;8.10;;;6.60;;
10144;SDS011;5113;41.822;23.564;2023-05-21T03:57:37;8.83;;;6.57;;
10144;SDS011;5113;41.822;23.564;2023-05-21T04:00:44;7.40;;;5.67;;
10144;SDS011;5113;41.822;23.564;2023-05-21T04:03:51;8.23;;;6.07;;
10144;SDS011;5113;41.822;23.564;2023-05-21T04:06:58;6.73;;;5.70;;
10144;SDS011;5113;41.822;23.564;2023-05-21T04:10:04;6.73;;;5.43;;
10144;SDS011;5113;41.822;23.564;2023-05-21T04:13:11;4.83;;;4.20;;
10144;SDS011;5113;41.822;23.564;2023-05-21T04:16:19;5.50;;;3.93;;
10144;SDS011;5113;41.822;23.564;2023-05-21T04:19:25;4.07;;;3.77;;
10144;SDS011;5113;41.822;23.564;2023-05-21T04:22:32;7.27;;;3.90;;
10144;SDS011;5113;41.822;23.564;2023-05-21T04:25:38;5.13;;;4.10;;
10144;SDS011;5113;41.822;23.564;2023-05-21T04:28:45;5.37;;;4.30;;
10144;SDS011;5113;41.822;23.564;2023-05-21T04:31:52;13.17;;;9.40;;
10144;SDS011;5113;41.822;23.564;2023-05-21T04:34:59;7.13;;;5.20;;
10144;SDS011;5113;41.822;23.564;2023-05-21T04:38:05;14.53;;;7.37;;
10144;SDS011;5113;41.822;23.564;2023-05-21T04:41:12;4.37;;;4.00;;
10144;SDS011;5113;41.822;23.564;2023-05-21T04:44:18;5.00;;;4.37;;
10144;SDS011;5113;41.822;23.564;2023-05-21T04:47:25;5.73;;;4.83;;
10144;SDS011;5113;41.822;23.564;2023-05-21T04:50:33;6.40;;;4.83;;
10144;SDS011;5113;41.822;23.564;2023-05-21T04:53:40;4.93;;;4.23;;
10144;SDS011;5113;41.822;23.564;2023-05-21T04:56:46;4.20;;;3.77;;
10144;SDS011;5113;41.822;23.564;2023-05-21T04:59:52;5.93;;;4.27;;
10144;SDS011;5113;41.822;23.564;2023-05-21T05:03:00;5.67;;;4.43;;
10144;SDS011;5113;41.822;23.564;2023-05-21T05:06:07;4.20;;;3.80;;
10144;SDS011;5113;41.822;23.564;2023-05-21T05:09:13;4.13;;;3.73;;
10144;SDS011;5113;41.822;23.564;2023-05-21T05:12:19;3.43;;;3.03;;
10144;SDS011;5113;41.822;23.564;2023-05-21T05:15:25;3.73;;;3.43;;
10144;SDS011;5113;41.822;23.564;2023-05-21T05:18:32;3.90;;;3.20;;
10144;SDS011;5113;41.822;23.564;2023-05-21T05:21:39;4.57;;;3.70;;
10144;SDS011;5113;41.822;23.564;2023-05-21T05:24:45;7.33;;;3.40;;
10144;SDS011;5113;41.822;23.564;2023-05-21T05:27:51;5.13;;;4.20;;
10144;SDS011;5113;41.822;23.564;2023-05-21T05:30:58;6.13;;;4.43;;
10144;SDS011;5113;41.822;23.564;2023-05-21T05:34:06;6.27;;;4.90;;
10144;SDS011;5113;41.822;23.564;2023-05-21T05:37:13;4.93;;;4.43;;
10144;SDS011;5113;41.822;23.564;2023-05-21T05:40:19;7.57;;;5.20;;
10144;SDS011;5113;41.822;23.564;2023-05-21T05:43:26;8.37;;;6.43;;
10144;SDS011;5113;41.822;23.564;2023-05-21T05:46:33;6.67;;;5.87;;
10144;SDS011;5113;41.822;23.564;2023-05-21T05:49:40;8.83;;;4.80;;
10144;SDS011;5113;41.822;23.564;2023-05-21T05:52:47;7.27;;;4.23;;
10144;SDS011;5113;41.822;23.564;2023-05-21T05:55:55;5.40;;;3.73;;
10144;SDS011;5113;41.822;23.564;2023-05-21T05:59:01;3.93;;;2.80;;
10144;SDS011;5113;41.822;23.564;2023-05-21T06:02:07;3.23;;;2.90;;
10144;SDS011;5113;41.822;23.564;2023-05-21T06:05:15;5.50;;;2.80;;
10144;SDS011;5113;41.822;23.564;2023-05-21T06:08:22;2.90;;;2.57;;
10144;SDS011;5113;41.822;23.564;2023-05-21T06:11:28;4.30;;;3.67;;
10144;SDS011;5113;41.822;23.564;2023-05-21T06:14:34;6.67;;;4.70;;
10144;SDS011;5113;41.822;23.564;2023-05-21T06:17:41;4.33;;;3.93;;
10144;SDS011;5113;41.822;23.564;2023-05-21T06:20:49;4.80;;;4.30;;
10144;SDS011;5113;41.822;23.564;2023-05-21T06:23:55;4.40;;;3.00;;
10144;SDS011;5113;41.822;23.564;2023-05-21T06:27:02;7.77;;;3.03;;
10144;SDS011;5113;41.822;23.564;2023-05-21T06:30:09;4.57;;;3.00;;
10144;SDS011;5113;41.822;23.564;2023-05-21T06:33:15;4.27;;;3.57;;
10144;SDS011;5113;41.822;23.564;2023-05-21T06:36:24;3.47;;;3.17;;
10144;SDS011;5113;41.822;23.564;2023-05-21T06:39:33;4.93;;;3.83;;
10144;SDS011;5113;41.822;23.564;2023-05-21T06:42:39;4.43;;;4.03;;
10144;SDS011;5113;41.822;23.564;2023-05-21T06:45:45;3.70;;;3.43;;
10144;SDS011;5113;41.822;23.564;2023-05-21T06:48:52;3.63;;;3.20;;
10144;SDS011;5113;41.822;23.564;2023-05-21T06:51:59;8.73;;;5.33;;
10144;SDS011;5113;41.822;23.564;2023-05-21T06:55:07;3.57;;;3.27;;
10144;SDS011;5113;41.822;23.564;2023-05-21T06:58:14;5.13;;;3.83;;
10144;SDS011;5113;41.822;23.564;2023-05-21T07:01:20;4.33;;;3.93;;
10144;SDS011;5113;41.822;23.564;2023-05-21T07:04:27;3.33;;;3.03;;
10144;SDS011;5113;41.822;23.564;2023-05-21T07:07:34;3.93;;;3.27;;
10144;SDS011;5113;41.822;23.564;2023-05-21T07:10:41;3.67;;;3.33;;
10144;SDS011;5113;41.822;23.564;2023-05-21T07:13:47;7.23;;;5.50;;
10144;SDS011;5113;41.822;23.564;2023-05-21T07:16:53;10.00;;;5.73;;
10144;SDS011;5113;41.822;23.564;2023-05-21T07:20:00;5.60;;;4.00;;
10144;SDS011;5113;41.822;23.564;2023-05-21T07:23:08;39.33;;;21.23;;
10144;SDS011;5113;41.822;23.564;2023-05-21T07:26:15;5.93;;;4.40;;
10144;SDS011;5113;41.822;23.564;2023-05-21T07:29:21;7.00;;;3.67;;
10144;SDS011;5113;41.822;23.564;2023-05-21T07:32:28;6.20;;;3.20;;
10144;SDS011;5113;41.822;23.564;2023-05-21T07:35:34;4.87;;;3.90;;
10144;SDS011;5113;41.822;23.564;2023-05-21T07:38:43;3.67;;;3.13;;
10144;SDS011;5113;41.822;23.564;2023-05-21T07:41:49;7.80;;;3.00;;
10144;SDS011;5113;41.822;23.564;2023-05-21T07:44:56;4.80;;;3.30;;
10144;SDS011;5113;41.822;23.564;2023-05-21T07:48:02;3.63;;;3.10;;
10144;SDS011;5113;41.822;23.564;2023-05-21T07:51:09;3.37;;;3.10;;
10144;SDS011;5113;41.822;23.564;2023-05-21T07:54:17;4.50;;;3.20;;
10144;SDS011;5113;41.822;23.564;2023-05-21T07:57:23;5.90;;;2.90;;
10144;SDS011;5113;41.822;23.564;2023-05-21T08:00:29;4.97;;;4.37;;
10144;SDS011;5113;41.822;23.564;2023-05-21T08:03:48;3.90;;;2.93;;
10144;SDS011;5113;41.822;23.564;2023-05-21T08:06:54;4.80;;;3.23;;
10144;SDS011;5113;41.822;23.564;2023-05-21T08:10:02;3.37;;;3.07;;
10144;SDS011;5113;41.822;23.564;2023-05-21T08:13:10;2.93;;;2.63;;
10144;SDS011;5113;41.822;23.564;2023-05-21T08:16:17;6.07;;;3.40;;
10144;SDS011;5113;41.822;23.564;2023-05-21T08:19:24;4.73;;;3.40;;
10144;SDS011;5113;41.822;23.564;2023-05-21T08:22:31;4.47;;;3.33;;
10144;SDS011;5113;41.822;23.564;2023-05-21T08:25:39;4.70;;;3.47;;
10144;SDS011;5113;41.822;23.564;2023-05-21T08:28:45;5.53;;;4.47;;
10144;SDS011;5113;41.822;23.564;2023-05-21T08:31:52;3.90;;;3.47;;
10144;SDS011;5113;41.822;23.564;2023-05-21T08:34:58;5.97;;;4.30;;
10144;SDS011;5113;41.822;23.564;2023-05-21T08:38:05;6.17;;;4.90;;
10144;SDS011;5113;41.822;23.564;2023-05-21T08:41:12;14.10;;;6.50;;
10144;SDS011;5113;41.822;23.564;2023-05-21T08:44:19;10.93;;;6.27;;
10144;SDS011;5113;41.822;23.564;2023-05-21T08:47:31;10.90;;;8.57;;
10144;SDS011;5113;41.822;23.564;2023-05-21T08:50:40;7.33;;;5.10;;
10144;SDS011;5113;41.822;23.564;2023-05-21T08:53:47;5.77;;;4.70;;
10144;SDS011;5113;41.822;23.564;2023-05-21T08:56:57;13.63;;;7.53;;
10144;SDS011;5113;41.822;23.564;2023-05-21T09:00:06;6.23;;;4.27;;
10144;SDS011;5113;41.822;23.564;2023-05-21T09:03:13;5.07;;;3.93;;
10144;SDS011;5113;41.822;23.564;2023-05-21T09:06:21;3.77;;;3.20;;
10144;SDS011;5113;41.822;23.564;2023-05-21T09:09:30;5.07;;;4.07;;
10144;SDS011;5113;41.822;23.564;2023-05-21T09:12:40;5.37;;;3.40;;
10144;SDS011;5113;41.822;23.564;2023-05-21T09:15:46;4.67;;;2.97;;
10144;SDS011;5113;41.822;23.564;2023-05-21T09:18:55;2.93;;;2.73;;
10144;SDS011;5113;41.822;23.564;2023-05-21T09:22:01;2.87;;;2.60;;
10144;SDS011;5113;41.822;23.564;2023-05-21T09:25:08;4.60;;;2.83;;
10144;SDS011;5113;41.822;23.564;2023-05-21T09:28:17;10.00;;;7.23;;
10144;SDS011;5113;41.822;23.564;2023-05-21T09:31:24;3.90;;;3.60;;
10144;SDS011;5113;41.822;23.564;2023-05-21T09:34:30;8.83;;;4.37;;
10144;SDS011;5113;41.822;23.564;2023-05-21T09:37:41;16.47;;;8.57;;
10144;SDS011;5113;41.822;23.564;2023-05-21T09:40:48;9.07;;;5.73;;
10144;SDS011;5113;41.822;23.564;2023-05-21T09:43:58;7.27;;;4.60;;
10144;SDS011;5113;41.822;23.564;2023-05-21T09:47:07;5.13;;;4.00;;
10144;SDS011;5113;41.822;23.564;2023-05-21T09:50:16;4.60;;;3.23;;
10144;SDS011;5113;41.822;23.564;2023-05-21T09:53:23;6.43;;;4.70;;
10144;SDS011;5113;41.822;23.564;2023-05-21T09:56:30;11.53;;;8.30;;
10144;SDS011;5113;41.822;23.564;2023-05-21T09:59:38;13.03;;;6.20;;
10144;SDS011;5113;41.822;23.564;2023-05-21T10:02:45;6.77;;;5.53;;
10144;SDS011;5113;41.822;23.564;2023-05-21T10:05:52;5.60;;;4.53;;
10144;SDS011;5113;41.822;23.564;2023-05-21T10:09:04;4.50;;;4.07;;
10144;SDS011;5113;41.822;23.564;2023-05-21T10:12:14;5.10;;;3.70;;
10144;SDS011;5113;41.822;23.564;2023-05-21T10:15:27;3.93;;;3.00;;
10144;SDS011;5113;41.822;23.564;2023-05-21T10:18:37;4.63;;;3.30;;
10144;SDS011;5113;41.822;23.564;2023-05-21T10:21:45;7.20;;;4.77;;
10144;SDS011;5113;41.822;23.564;2023-05-21T10:24:54;7.90;;;6.27;;
10144;SDS011;5113;41.822;23.564;2023-05-21T10:28:02;10.27;;;6.80;;
10144;SDS011;5113;41.822;23.564;2023-05-21T10:31:12;9.30;;;6.70;;
10144;SDS011;5113;41.822;23.564;2023-05-21T10:34:20;7.13;;;4.40;;
10144;SDS011;5113;41.822;23.564;2023-05-21T10:37:27;6.10;;;3.93;;
10144;SDS011;5113;41.822;23.564;2023-05-21T10:40:34;5.17;;;4.73;;
10144;SDS011;5113;41.822;23.564;2023-05-21T10:43:48;10.00;;;6.87;;
10144;SDS011;5113;41.822;23.564;2023-05-21T10:47:06;7.20;;;5.50;;
10144;SDS011;5113;41.822;23.564;2023-05-21T10:54:26;15.43;;;9.50;;
10144;SDS011;5113;41.822;23.564;2023-05-21T11:01:33;12.47;;;6.93;;
10144;SDS011;5113;41.822;23.564;2023-05-21T11:04:44;12.57;;;8.27;;
10144;SDS011;5113;41.822;23.564;2023-05-21T11:07:55;26.60;;;13.80;;
10144;SDS011;5113;41.822;23.564;2023-05-21T11:11:05;141.00;;;38.93;;
10144;SDS011;5113;41.822;23.564;2023-05-21T11:14:30;41.13;;;16.27;;
10144;SDS011;5113;41.822;23.564;2023-05-21T11:17:39;14.80;;;7.97;;
10144;SDS011;5113;41.822;23.564;2023-05-21T11:20:50;14.57;;;9.67;;
10144;SDS011;5113;41.822;23.564;2023-05-21T11:24:01;24.20;;;13.20;;
10144;SDS011;5113;41.822;23.564;2023-05-21T11:27:10;8.70;;;6.83;;
10144;SDS011;5113;41.822;23.564;2023-05-21T11:30:17;22.17;;;9.90;;
10144;SDS011;5113;41.822;23.564;2023-05-21T11:33:23;14.27;;;8.43;;
10144;SDS011;5113;41.822;23.564;2023-05-21T11:36:31;16.20;;;9.10;;
10144;SDS011;5113;41.822;23.564;2023-05-21T11:39:39;15.03;;;10.07;;
10144;SDS011;5113;41.822;23.564;2023-05-21T11:42:49;8.90;;;7.20;;
10144;SDS011;5113;41.822;23.564;2023-05-21T11:45:57;9.53;;;7.23;;
10144;SDS011;5113;41.822;23.564;2023-05-21T11:49:04;16.97;;;9.50;;
10144;SDS011;5113;41.822;23.564;2023-05-21T11:52:12;16.60;;;9.57;;
10144;SDS011;5113;41.822;23.564;2023-05-21T11:55:22;18.07;;;9.93;;
10144;SDS011;5113;41.822;23.564;2023-05-21T11:58:30;22.37;;;13.03;;
10144;SDS011;5113;41.822;23.564;2023-05-21T12:01:36;38.63;;;18.30;;
10144;SDS011;5113;41.822;23.564;2023-05-21T12:04:43;33.33;;;15.37;;
10144;SDS011;5113;41.822;23.564;2023-05-21T12:07:51;24.03;;;11.87;;
10144;SDS011;5113;41.822;23.564;2023-05-21T12:10:59;13.60;;;10.37;;
10144;SDS011;5113;41.822;23.564;2023-05-21T12:14:06;18.57;;;8.53;;
10144;SDS011;5113;41.822;23.564;2023-05-21T12:17:14;10.33;;;7.37;;
10144;SDS011;5113;41.822;23.564;2023-05-21T12:20:21;5.60;;;4.87;;
10144;SDS011;5113;41.822;23.564;2023-05-21T12:23:28;6.53;;;3.73;;
10144;SDS011;5113;41.822;23.564;2023-05-21T12:26:35;5.77;;;4.33;;
10144;SDS011;5113;41.822;23.564;2023-05-21T12:29:42;8.20;;;4.60;;
10144;SDS011;5113;41.822;23.564;2023-05-21T12:32:50;5.13;;;4.00;;
10144;SDS011;5113;41.822;23.564;2023-05-21T12:35:56;7.37;;;5.23;;
10144;SDS011;5113;41.822;23.564;2023-05-21T12:39:04;8.17;;;4.57;;
10144;SDS011;5113;41.822;23.564;2023-05-21T12:42:15;4.83;;;4.33;;
10144;SDS011;5113;41.822;23.564;2023-05-21T12:45:21;10.10;;;5.13;;
10144;SDS011;5113;41.822;23.564;2023-05-21T12:48:27;48.23;;;27.97;;
10144;SDS011;5113;41.822;23.564;2023-05-21T12:51:37;23.30;;;12.77;;
10144;SDS011;5113;41.822;23.564;2023-05-21T12:54:48;8.80;;;7.33;;
10144;SDS011;5113;41.822;23.564;2023-05-21T12:58:01;16.13;;;9.60;;
10144;SDS011;5113;41.822;23.564;2023-05-21T13:01:12;19.97;;;9.50;;
10144;SDS011;5113;41.822;23.564;2023-05-21T13:04:18;9.20;;;6.40;;
10144;SDS011;5113;41.822;23.564;2023-05-21T13:07:26;18.70;;;9.73;;
10144;SDS011;5113;41.822;23.564;2023-05-21T13:10:34;27.70;;;13.83;;
10144;SDS011;5113;41.822;23.564;2023-05-21T13:13:41;32.37;;;19.27;;
10144;SDS011;5113;41.822;23.564;2023-05-21T13:16:48;27.87;;;15.10;;
10144;SDS011;5113;41.822;23.564;2023-05-21T13:20:04;46.90;;;22.80;;
10144;SDS011;5113;41.822;23.564;2023-05-21T13:23:13;30.10;;;17.20;;
10144;SDS011;5113;41.822;23.564;2023-05-21T13:26:21;23.20;;;13.77;;
10144;SDS011;5113;41.822;23.564;2023-05-21T13:29:27;21.90;;;14.57;;
10144;SDS011;5113;41.822;23.564;2023-05-21T13:32:34;16.93;;;12.37;;
10144;SDS011;5113;41.822;23.564;2023-05-21T13:35:41;8.70;;;7.07;;
10144;SDS011;5113;41.822;23.564;2023-05-21T13:38:49;8.93;;;6.63;;
10144;SDS011;5113;41.822;23.564;2023-05-21T13:41:56;9.23;;;7.47;;
10144;SDS011;5113;41.822;23.564;2023-05-21T13:45:03;7.73;;;6.03;;
10144;SDS011;5113;41.822;23.564;2023-05-21T13:48:10;5.80;;;4.40;;
10144;SDS011;5113;41.822;23.564;2023-05-21T13:51:16;4.77;;;4.27;;
10144;SDS011;5113;41.822;23.564;2023-05-21T13:54:42;8.23;;;5.97;;
10144;SDS011;5113;41.822;23.564;2023-05-21T13:57:49;11.27;;;6.87;;
10144;SDS011;5113;41.822;23.564;2023-05-21T14:00:56;14.93;;;9.17;;
10144;SDS011;5113;41.822;23.564;2023-05-21T14:04:02;8.77;;;6.10;;
10144;SDS011;5113;41.822;23.564;2023-05-21T14:07:09;11.57;;;7.63;;
10144;SDS011;5113;41.822;23.564;2023-05-21T14:10:15;8.33;;;6.13;;
10144;SDS011;5113;41.822;23.564;2023-05-21T14:13:23;8.80;;;5.40;;
10144;SDS011;5113;41.822;23.564;2023-05-21T14:16:29;6.27;;;4.73;;
10144;SDS011;5113;41.822;23.564;2023-05-21T14:19:35;8.80;;;5.93;;
10144;SDS011;5113;41.822;23.564;2023-05-21T14:22:41;15.97;;;8.70;;
10144;SDS011;5113;41.822;23.564;2023-05-21T14:25:48;66.03;;;34.60;;
10144;SDS011;5113;41.822;23.564;2023-05-21T14:28:55;34.90;;;20.17;;
10144;SDS011;5113;41.822;23.564;2023-05-21T14:32:02;32.93;;;19.67;;
10144;SDS011;5113;41.822;23.564;2023-05-21T14:35:08;24.00;;;13.80;;
10144;SDS011;5113;41.822;23.564;2023-05-21T14:38:14;10.83;;;7.37;;
10144;SDS011;5113;41.822;23.564;2023-05-21T14:41:22;14.60;;;10.10;;
10144;SDS011;5113;41.822;23.564;2023-05-21T14:44:31;23.40;;;13.03;;
10144;SDS011;5113;41.822;23.564;2023-05-21T14:47:38;26.37;;;14.77;;
10144;SDS011;5113;41.822;23.564;2023-05-21T14:50:44;17.73;;;10.23;;
10144;SDS011;5113;41.822;23.564;2023-05-21T14:53:51;19.53;;;10.27;;
10144;SDS011;5113;41.822;23.564;2023-05-21T14:56:57;11.87;;;8.30;;
10144;SDS011;5113;41.822;23.564;2023-05-21T15:00:06;11.60;;;7.80;;
10144;SDS011;5113;41.822;23.564;2023-05-21T15:03:13;9.13;;;6.17;;
10144;SDS011;5113;41.822;23.564;2023-05-21T15:06:21;9.90;;;5.80;;
10144;SDS011;5113;41.822;23.564;2023-05-21T15:09:50;7.57;;;4.90;;
10144;SDS011;5113;41.822;23.564;2023-05-21T15:12:56;5.80;;;4.70;;
10144;SDS011;5113;41.822;23.564;2023-05-21T15:16:04;9.50;;;6.00;;
10144;SDS011;5113;41.822;23.564;2023-05-21T15:19:11;13.73;;;9.10;;
10144;SDS011;5113;41.822;23.564;2023-05-21T15:22:18;12.60;;;7.53;;
10144;SDS011;5113;41.822;23.564;2023-05-21T15:25:24;15.17;;;10.70;;
10144;SDS011;5113;41.822;23.564;2023-05-21T15:28:30;20.00;;;11.27;;
10144;SDS011;5113;41.822;23.564;2023-05-21T15:31:38;15.17;;;10.77;;
10144;SDS011;5113;41.822;23.564;2023-05-21T15:34:45;17.23;;;11.80;;
10144;SDS011;5113;41.822;23.564;2023-05-21T15:37:52;20.63;;;13.57;;
10144;SDS011;5113;41.822;23.564;2023-05-21T15:40:58;41.37;;;18.60;;
10144;SDS011;5113;41.822;23.564;2023-05-21T15:44:04;45.23;;;21.63;;
10144;SDS011;5113;41.822;23.564;2023-05-21T15:47:12;13.17;;;7.40;;
10144;SDS011;5113;41.822;23.564;2023-05-21T15:50:19;10.57;;;7.40;;
10144;SDS011;5113;41.822;23.564;2023-05-21T15:53:26;5.87;;;5.13;;
10144;SDS011;5113;41.822;23.564;2023-05-21T15:56:32;8.30;;;5.07;;
10144;SDS011;5113;41.822;23.564;2023-05-21T15:59:39;6.33;;;5.40;;
10144;SDS011;5113;41.822;23.564;2023-05-21T16:02:46;38.23;;;17.17;;
10144;SDS011;5113;41.822;23.564;2023-05-21T16:05:53;13.97;;;8.10;;
10144;SDS011;5113;41.822;23.564;2023-05-21T16:08:59;12.37;;;7.73;;
10144;SDS011;5113;41.822;23.564;2023-05-21T16:12:06;15.00;;;7.13;;
10144;SDS011;5113;41.822;23.564;2023-05-21T16:15:12;9.43;;;6.37;;
10144;SDS011;5113;41.822;23.564;2023-05-21T16:18:20;10.33;;;6.30;;
10144;SDS011;5113;41.822;23.564;2023-05-21T16:21:29;6.87;;;5.23;;
10144;SDS011;5113;41.822;23.564;2023-05-21T16:24:37;9.77;;;7.40;;
10144;SDS011;5113;41.822;23.564;2023-05-21T16:27:43;6.60;;;5.43;;
10144;SDS011;5113;41.822;23.564;2023-05-21T16:30:50;7.30;;;5.80;;
10144;SDS011;5113;41.822;23.564;2023-05-21T16:33:58;6.67;;;4.70;;
10144;SDS011;5113;41.822;23.564;2023-05-21T16:37:04;9.70;;;6.97;;
10144;SDS011;5113;41.822;23.564;2023-05-21T16:40:13;14.87;;;9.37;;
10144;SDS011;5113;41.822;23.564;2023-05-21T16:43:19;26.77;;;12.60;;
10144;SDS011;5113;41.822;23.564;2023-05-21T16:46:26;20.23;;;10.07;;
10144;SDS011;5113;41.822;23.564;2023-05-21T16:49:33;41.43;;;18.27;;
10144;SDS011;5113;41.822;23.564;2023-05-21T16:52:40;55.77;;;25.97;;
10144;SDS011;5113;41.822;23.564;2023-05-21T16:55:46;71.53;;;31.20;;
10144;SDS011;5113;41.822;23.564;2023-05-21T16:58:53;129.03;;;54.17;;
10144;SDS011;5113;41.822;23.564;2023-05-21T17:01:59;172.50;;;73.67;;
10144;SDS011;5113;41.822;23.564;2023-05-21T17:05:08;129.77;;;61.10;;
10144;SDS011;5113;41.822;23.564;2023-05-21T17:08:14;88.17;;;40.73;;
10144;SDS011;5113;41.822;23.564;2023-05-21T17:11:21;41.17;;;20.40;;
10144;SDS011;5113;41.822;23.564;2023-05-21T17:14:28;28.43;;;14.30;;
10144;SDS011;5113;41.822;23.564;2023-05-21T17:17:39;16.57;;;10.30;;
10144;SDS011;5113;41.822;23.564;2023-05-21T17:20:46;16.97;;;11.20;;
10144;SDS011;5113;41.822;23.564;2023-05-21T17:23:53;22.87;;;13.97;;
10144;SDS011;5113;41.822;23.564;2023-05-21T17:27:00;37.47;;;22.40;;
10144;SDS011;5113;41.822;23.564;2023-05-21T17:30:07;44.37;;;23.23;;
10144;SDS011;5113;41.822;23.564;2023-05-21T17:33:14;22.57;;;14.63;;
10144;SDS011;5113;41.822;23.564;2023-05-21T17:36:22;30.73;;;17.03;;
10144;SDS011;5113;41.822;23.564;2023-05-21T17:39:29;57.90;;;28.47;;
10144;SDS011;5113;41.822;23.564;2023-05-21T17:42:35;41.43;;;25.97;;
10144;SDS011;5113;41.822;23.564;2023-05-21T17:45:41;42.30;;;24.93;;
10144;SDS011;5113;41.822;23.564;2023-05-21T17:48:48;38.50;;;20.30;;
10144;SDS011;5113;41.822;23.564;2023-05-21T17:51:55;20.13;;;13.50;;
10144;SDS011;5113;41.822;23.564;2023-05-21T17:55:04;21.13;;;12.87;;
10144;SDS011;5113;41.822;23.564;2023-05-21T17:58:11;22.77;;;14.83;;
10144;SDS011;5113;41.822;23.564;2023-05-21T18:01:17;30.83;;;16.13;;
10144;SDS011;5113;41.822;23.564;2023-05-21T18:04:24;37.23;;;19.83;;
10144;SDS011;5113;41.822;23.564;2023-05-21T18:07:32;25.30;;;16.67;;
10144;SDS011;5113;41.822;23.564;2023-05-21T18:10:39;26.67;;;15.73;;
10144;SDS011;5113;41.822;23.564;2023-05-21T18:13:46;27.97;;;16.90;;
10144;SDS011;5113;41.822;23.564;2023-05-21T18:16:52;30.33;;;17.27;;
10144;SDS011;5113;41.822;23.564;2023-05-21T18:19:59;29.17;;;17.67;;
10144;SDS011;5113;41.822;23.564;2023-05-21T18:23:06;24.50;;;13.40;;
10144;SDS011;5113;41.822;23.564;2023-05-21T18:26:14;15.53;;;9.87;;
10144;SDS011;5113;41.822;23.564;2023-05-21T18:29:23;13.03;;;8.23;;
10144;SDS011;5113;41.822;23.564;2023-05-21T18:32:29;19.20;;;11.80;;
10144;SDS011;5113;41.822;23.564;2023-05-21T18:35:36;20.70;;;11.17;;
10144;SDS011;5113;41.822;23.564;2023-05-21T18:38:43;16.47;;;10.63;;
10144;SDS011;5113;41.822;23.564;2023-05-21T18:41:50;17.77;;;10.60;;
10144;SDS011;5113;41.822;23.564;2023-05-21T18:45:14;18.80;;;10.30;;
10144;SDS011;5113;41.822;23.564;2023-05-21T18:48:21;13.73;;;9.33;;
10144;SDS011;5113;41.822;23.564;2023-05-21T18:51:27;18.30;;;10.20;;